Time;durP1;ratioP1;P1;durP2;ratioP2;P2;SDS_P1;SDS_P2;PMS_P1;PMS_P2;Temp;Humidity;BMP_temperature;BMP_pressure;BME280_temperature;BME280_humidity;BME280_pressure;Samples;Min_cycle;Max_cycle;Signal;HPM_P1;HPM_P2
2021/12/31 00:00:02;;;;;;;1.30;1.30;;;14.40;99.90;;;;;;4978238;28;20461;-72
2021/12/31 00:02:29;;;;;;;1.33;1.30;;;14.40;99.90;;;;;;4978100;28;20481;-71
2021/12/31 00:04:57;;;;;;;1.93;1.83;;;14.40;99.90;;;;;;4978226;28;20465;-70
2021/12/31 00:07:24;;;;;;;1.70;1.60;;;14.40;99.90;;;;;;4978301;28;20459;-72
2021/12/31 00:09:50;;;;;;;19.53;17.50;;;14.40;99.90;;;;;;4979206;28;20974;-71
2021/12/31 00:12:17;;;;;;;2.27;2.10;;;14.40;99.90;;;;;;4978009;28;20504;-72
2021/12/31 00:14:44;;;;;;;1.40;1.30;;;14.40;99.90;;;;;;4977829;28;20461;-71
2021/12/31 00:17:11;;;;;;;1.77;1.57;;;14.40;99.90;;;;;;4978102;28;20463;-71
2021/12/31 00:19:43;;;;;;;1.67;1.50;;;14.40;99.90;;;;;;4977724;28;20460;-71
2021/12/31 00:22:36;;;;;;;1.20;1.20;;;14.30;99.90;;;;;;4977738;28;20487;-71
2021/12/31 00:25:04;;;;;;;3.10;1.40;;;14.30;99.90;;;;;;4977597;28;20473;-71
2021/12/31 00:27:31;;;;;;;1.60;1.50;;;14.30;99.90;;;;;;4977587;28;20463;-70
2021/12/31 00:29:57;;;;;;;1.57;1.10;;;14.30;99.90;;;;;;4977717;28;20964;-71
2021/12/31 00:32:24;;;;;;;1.53;1.43;;;14.30;99.90;;;;;;4977393;28;20490;-71
2021/12/31 00:34:51;;;;;;;1.77;1.67;;;14.30;99.90;;;;;;4977550;28;20469;-71
2021/12/31 00:37:27;;;;;;;1.40;1.30;;;14.30;99.90;;;;;;4977567;28;20857;-71
2021/12/31 00:39:54;;;;;;;1.60;1.33;;;14.30;99.90;;;;;;4977794;28;20492;-71
2021/12/31 00:42:21;;;;;;;1.40;1.30;;;14.30;99.90;;;;;;4977275;28;20476;-71
2021/12/31 00:44:48;;;;;;;1.50;1.40;;;14.20;99.90;;;;;;4977529;28;20464;-71
2021/12/31 00:47:15;;;;;;;3.23;1.33;;;14.20;99.90;;;;;;4977179;28;20510;-71
2021/12/31 00:49:42;;;;;;;1.50;1.40;;;14.20;99.90;;;;;;4977163;28;20457;-71
2021/12/31 00:52:09;;;;;;;1.20;1.10;;;14.20;99.90;;;;;;4977273;28;20485;-71
2021/12/31 00:54:38;;;;;;;1.33;1.33;;;14.20;99.90;;;;;;4977131;28;20465;-71
2021/12/31 00:57:06;;;;;;;1.60;1.50;;;14.10;99.90;;;;;;4977801;28;20442;-71
2021/12/31 00:59:34;;;;;;;1.33;1.30;;;14.10;99.90;;;;;;4977460;28;20822;-72
2021/12/31 01:02:03;;;;;;;2.87;1.63;;;14.10;99.90;;;;;;4977642;28;20485;-72
2021/12/31 01:04:30;;;;;;;3.00;1.93;;;14.20;99.90;;;;;;4977270;28;20525;-71
2021/12/31 01:06:58;;;;;;;2.90;1.47;;;14.10;99.90;;;;;;4976873;28;20908;-72
2021/12/31 01:09:25;;;;;;;1.60;1.60;;;14.20;99.90;;;;;;4977246;28;20488;-71
2021/12/31 01:11:54;;;;;;;1.90;1.43;;;14.20;99.90;;;;;;4976927;28;20490;-70
2021/12/31 01:14:28;;;;;;;1.60;1.30;;;14.20;99.90;;;;;;4976932;28;20544;-71
2021/12/31 01:16:58;;;;;;;1.90;1.77;;;14.20;99.90;;;;;;4977118;28;20972;-70
2021/12/31 01:22:09;;;;;;;1.43;1.37;;;14.20;99.90;;;;;;4976659;28;20540;-72
2021/12/31 01:24:36;;;;;;;1.80;1.70;;;14.30;99.90;;;;;;4976434;28;20942;-72
2021/12/31 01:27:04;;;;;;;1.83;1.40;;;14.20;99.90;;;;;;4978941;28;20464;-72
2021/12/31 01:29:31;;;;;;;1.63;1.53;;;14.20;99.90;;;;;;4979415;28;20460;-72
2021/12/31 01:31:58;;;;;;;1.20;1.20;;;14.20;99.90;;;;;;4976928;28;20489;-72
2021/12/31 01:34:25;;;;;;;1.97;1.87;;;14.20;99.90;;;;;;4976178;28;21000;-71
2021/12/31 01:36:52;;;;;;;1.53;1.43;;;14.20;99.90;;;;;;4976784;28;20463;-72
2021/12/31 01:39:19;;;;;;;1.47;1.30;;;14.10;99.90;;;;;;4976757;28;20877;-71
2021/12/31 01:41:46;;;;;;;1.17;1.17;;;14.10;99.90;;;;;;4977762;28;20485;-72
2021/12/31 01:44:14;;;;;;;1.97;1.50;;;14.00;99.90;;;;;;4976809;28;20453;-72
2021/12/31 01:46:54;;;;;;;1.53;1.43;;;14.00;99.90;;;;;;4976263;28;20463;-72
2021/12/31 01:49:22;;;;;;;1.57;1.47;;;14.00;99.90;;;;;;4976540;28;20446;-72
2021/12/31 01:51:49;;;;;;;1.70;1.60;;;13.90;99.90;;;;;;4978181;28;20512;-72
2021/12/31 01:54:16;;;;;;;1.50;1.50;;;13.90;99.90;;;;;;4982412;28;20481;-72
2021/12/31 01:56:43;;;;;;;1.50;1.40;;;13.80;99.90;;;;;;4982985;28;20463;-71
2021/12/31 01:59:11;;;;;;;2.50;1.30;;;13.80;99.90;;;;;;4983283;28;20818;-71
2021/12/31 02:01:40;;;;;;;1.40;1.40;;;13.70;99.90;;;;;;4976615;28;20478;-72
2021/12/31 02:04:07;;;;;;;2.33;1.70;;;13.70;99.90;;;;;;4976203;28;20458;-71
2021/12/31 02:06:34;;;;;;;2.10;1.97;;;13.60;99.90;;;;;;4975532;28;20938;-71
2021/12/31 02:09:04;;;;;;;1.77;1.67;;;13.60;99.90;;;;;;4976113;28;20460;-71
2021/12/31 02:11:31;;;;;;;2.90;1.70;;;13.60;99.90;;;;;;4975500;28;20491;-71
2021/12/31 02:13:58;;;;;;;2.47;1.73;;;13.60;99.90;;;;;;4976101;28;20477;-71
2021/12/31 02:16:25;;;;;;;1.63;1.53;;;13.60;99.90;;;;;;4976467;28;20458;-71
2021/12/31 02:18:53;;;;;;;1.67;1.37;;;13.50;99.90;;;;;;4976173;28;20462;-72
2021/12/31 02:21:21;;;;;;;2.10;1.90;;;13.50;99.90;;;;;;4976349;28;20860;-72
2021/12/31 02:23:52;;;;;;;2.50;1.70;;;13.50;99.90;;;;;;4975808;28;20955;-72
2021/12/31 02:26:19;;;;;;;1.60;1.50;;;13.50;99.90;;;;;;4975614;28;20451;-71
2021/12/31 02:28:45;;;;;;;2.40;2.03;;;13.40;99.90;;;;;;4975771;28;20460;-72
2021/12/31 02:31:12;;;;;;;1.50;1.50;;;13.30;99.90;;;;;;4975943;28;20492;-72
2021/12/31 02:33:40;;;;;;;1.97;1.70;;;13.20;99.90;;;;;;4975845;28;20885;-71
2021/12/31 02:36:08;;;;;;;1.87;1.67;;;13.20;99.90;;;;;;4975885;28;20511;-71
2021/12/31 02:38:36;;;;;;;1.60;1.60;;;13.10;99.90;;;;;;4976076;28;20939;-72
2021/12/31 02:41:03;;;;;;;2.40;1.80;;;13.00;99.90;;;;;;4976040;28;20457;-72
2021/12/31 02:43:30;;;;;;;2.80;2.70;;;13.00;99.90;;;;;;4975600;28;20517;-72
2021/12/31 02:45:56;;;;;;;1.47;1.47;;;12.90;99.90;;;;;;4975949;28;20454;-72
2021/12/31 02:48:25;;;;;;;2.70;1.90;;;12.80;99.90;;;;;;4975773;28;20465;-70
2021/12/31 02:50:55;;;;;;;1.60;1.50;;;12.70;99.90;;;;;;4975492;28;20907;-70
2021/12/31 02:53:26;;;;;;;4.50;1.83;;;12.60;99.90;;;;;;4975665;28;20483;-71
2021/12/31 02:56:01;;;;;;;3.83;2.00;;;12.60;99.90;;;;;;4975598;28;20502;-71
2021/12/31 02:58:29;;;;;;;1.70;1.60;;;12.50;99.90;;;;;;4975864;28;20501;-71
2021/12/31 03:00:56;;;;;;;1.33;1.27;;;12.50;99.90;;;;;;4975755;28;20466;-71
2021/12/31 03:03:24;;;;;;;1.60;1.50;;;12.40;99.90;;;;;;4975675;28;20475;-71
2021/12/31 03:05:53;;;;;;;1.77;1.67;;;12.30;99.90;;;;;;4975843;28;20459;-71
2021/12/31 03:08:21;;;;;;;1.87;1.77;;;12.30;99.90;;;;;;4975548;28;20466;-71
2021/12/31 03:10:48;;;;;;;2.40;1.50;;;12.30;99.90;;;;;;4976267;28;20455;-71
2021/12/31 03:13:17;;;;;;;2.00;1.90;;;12.20;99.90;;;;;;4977008;28;20482;-71
2021/12/31 03:15:45;;;;;;;2.07;1.77;;;12.20;99.90;;;;;;4978916;28;20942;-71
2021/12/31 03:18:12;;;;;;;1.60;1.60;;;12.10;99.90;;;;;;4979384;28;20467;-71
2021/12/31 03:20:42;;;;;;;2.00;1.90;;;12.10;99.90;;;;;;4983621;28;20457;-71
2021/12/31 03:23:09;;;;;;;1.80;1.70;;;12.00;99.90;;;;;;4978984;28;20485;-71
2021/12/31 03:25:36;;;;;;;2.17;2.07;;;11.90;99.90;;;;;;4978844;28;20500;-71
2021/12/31 03:28:03;;;;;;;2.83;2.17;;;11.90;99.90;;;;;;4978568;28;20460;-71
2021/12/31 03:30:31;;;;;;;2.80;1.70;;;11.80;99.90;;;;;;4978789;28;20466;-71
2021/12/31 03:32:58;;;;;;;1.60;1.50;;;11.80;99.90;;;;;;4978703;28;20481;-71
2021/12/31 03:35:25;;;;;;;2.00;1.90;;;11.70;99.90;;;;;;4978953;28;20457;-71
2021/12/31 03:37:54;;;;;;;1.50;1.40;;;11.70;99.90;;;;;;4978721;28;20462;-71
2021/12/31 03:40:20;;;;;;;1.80;1.70;;;11.70;99.90;;;;;;4978384;28;20553;-71
2021/12/31 03:42:47;;;;;;;2.03;1.93;;;11.60;99.90;;;;;;4978303;28;20486;-71
2021/12/31 03:45:14;;;;;;;2.40;1.60;;;11.60;99.90;;;;;;4978420;28;20460;-71
2021/12/31 03:47:42;;;;;;;4.43;2.10;;;11.60;99.90;;;;;;4977868;28;20982;-71
2021/12/31 03:50:10;;;;;;;2.10;1.50;;;11.60;99.90;;;;;;4978393;28;20464;-71
2021/12/31 03:52:38;;;;;;;1.80;1.70;;;11.50;99.90;;;;;;4978386;28;20478;-71
2021/12/31 03:55:06;;;;;;;1.90;1.80;;;11.50;99.90;;;;;;4978490;28;20525;-71
2021/12/31 03:57:32;;;;;;;1.97;1.67;;;11.50;99.90;;;;;;4978303;28;20468;-71
2021/12/31 03:59:59;;;;;;;1.90;1.50;;;11.50;99.90;;;;;;4978456;28;20848;-71
2021/12/31 04:02:26;;;;;;;2.10;1.73;;;11.50;99.90;;;;;;4978371;28;20809;-71
2021/12/31 04:04:54;;;;;;;2.13;1.90;;;11.40;99.90;;;;;;4978715;28;20457;-71
2021/12/31 04:07:21;;;;;;;1.90;1.60;;;11.40;99.90;;;;;;4978520;28;20484;-72
2021/12/31 04:09:48;;;;;;;3.63;1.93;;;11.40;99.90;;;;;;4978169;28;20463;-71
2021/12/31 04:12:15;;;;;;;1.90;1.80;;;11.40;99.90;;;;;;4978255;28;20853;-71
2021/12/31 04:14:42;;;;;;;2.50;2.30;;;11.40;99.90;;;;;;4978293;28;20480;-71
2021/12/31 04:17:09;;;;;;;2.47;2.10;;;11.40;99.90;;;;;;4978972;28;20962;-71
2021/12/31 04:19:36;;;;;;;2.80;2.07;;;11.30;99.90;;;;;;4978565;28;20537;-71
2021/12/31 04:22:07;;;;;;;2.47;2.27;;;11.30;99.90;;;;;;4977821;28;20472;-71
2021/12/31 04:24:52;;;;;;;2.77;2.03;;;11.30;99.90;;;;;;4978012;28;20861;-71
2021/12/31 04:27:20;;;;;;;3.10;2.17;;;11.30;99.90;;;;;;4977412;28;20509;-71
2021/12/31 04:29:51;;;;;;;2.03;1.93;;;11.20;99.90;;;;;;4977619;28;20454;-71
2021/12/31 04:32:19;;;;;;;2.47;2.00;;;11.20;99.90;;;;;;4977984;28;20990;-71
2021/12/31 04:34:46;;;;;;;2.13;1.93;;;11.20;99.90;;;;;;4978691;28;20482;-71
2021/12/31 04:37:15;;;;;;;2.20;1.77;;;11.20;99.90;;;;;;4977797;28;20453;-71
2021/12/31 04:39:41;;;;;;;1.83;1.73;;;11.20;99.90;;;;;;4977344;28;20468;-71
2021/12/31 04:42:08;;;;;;;3.83;1.93;;;11.10;99.90;;;;;;4979715;28;20483;-71
2021/12/31 04:44:35;;;;;;;1.50;1.50;;;11.10;99.90;;;;;;4978380;28;20464;-71
2021/12/31 04:47:02;;;;;;;2.47;2.27;;;11.10;99.90;;;;;;4977807;28;20462;-71
2021/12/31 04:49:28;;;;;;;2.30;2.13;;;11.10;99.90;;;;;;4977388;28;20457;-71
2021/12/31 04:51:55;;;;;;;4.17;2.10;;;11.10;99.90;;;;;;4977642;28;20482;-71
2021/12/31 04:54:23;;;;;;;2.37;2.27;;;11.10;99.90;;;;;;4977135;28;21065;-71
2021/12/31 04:56:52;;;;;;;3.33;2.30;;;11.10;99.90;;;;;;4977672;28;20465;-71
2021/12/31 04:59:19;;;;;;;2.43;2.17;;;11.10;99.90;;;;;;4977986;28;20504;-71
2021/12/31 05:01:47;;;;;;;3.90;2.40;;;11.10;99.90;;;;;;4977280;28;20843;-71
2021/12/31 05:04:14;;;;;;;2.83;2.40;;;11.00;99.90;;;;;;4976623;28;20456;-71
2021/12/31 05:06:41;;;;;;;2.73;2.53;;;10.90;99.90;;;;;;4976674;28;20459;-71
2021/12/31 05:09:08;;;;;;;3.90;2.40;;;10.90;99.90;;;;;;4976982;28;20462;-71
2021/12/31 05:11:36;;;;;;;2.73;2.00;;;10.90;99.90;;;;;;4976446;28;20498;-71
2021/12/31 05:14:04;;;;;;;2.60;2.40;;;10.90;99.90;;;;;;4976357;28;20486;-71
2021/12/31 05:16:31;;;;;;;2.60;2.43;;;10.90;99.90;;;;;;4976733;28;20462;-71
2021/12/31 05:18:58;;;;;;;2.40;2.30;;;10.90;99.90;;;;;;4976188;28;20491;-71
2021/12/31 05:21:24;;;;;;;3.03;2.73;;;10.80;99.90;;;;;;4976336;28;20469;-71
2021/12/31 05:23:51;;;;;;;3.37;2.43;;;10.90;99.90;;;;;;4976384;28;20477;-70
2021/12/31 05:26:18;;;;;;;3.20;2.83;;;10.80;99.90;;;;;;4976699;28;20453;-71
2021/12/31 05:28:46;;;;;;;2.97;2.73;;;10.80;99.90;;;;;;4976386;28;20466;-71
2021/12/31 05:31:13;;;;;;;4.60;2.30;;;10.90;99.90;;;;;;4976160;28;20462;-71
2021/12/31 05:33:39;;;;;;;2.80;2.60;;;10.90;99.90;;;;;;4978053;28;20478;-71
2021/12/31 05:36:06;;;;;;;2.40;2.30;;;10.90;99.90;;;;;;4981201;28;20451;-71
2021/12/31 05:38:34;;;;;;;2.83;2.60;;;10.90;99.90;;;;;;4981642;28;20944;-71
2021/12/31 05:41:01;;;;;;;5.10;2.43;;;10.90;99.90;;;;;;4981644;28;20463;-71
2021/12/31 05:43:27;;;;;;;2.33;2.20;;;10.80;99.90;;;;;;4977984;28;21008;-71
2021/12/31 05:45:55;;;;;;;4.43;2.40;;;10.80;99.90;;;;;;4976733;28;20976;-71
2021/12/31 05:48:22;;;;;;;2.70;2.43;;;10.80;99.90;;;;;;4976880;28;20453;-71
2021/12/31 05:50:49;;;;;;;2.70;2.50;;;10.80;99.90;;;;;;4976568;28;20455;-70
2021/12/31 05:53:15;;;;;;;4.07;3.07;;;10.70;99.90;;;;;;4976806;28;20472;-70
2021/12/31 05:55:42;;;;;;;2.47;2.37;;;10.70;99.90;;;;;;4976142;28;20509;-70
2021/12/31 05:58:09;;;;;;;2.80;2.60;;;10.70;99.90;;;;;;4975846;28;20492;-70
2021/12/31 06:00:36;;;;;;;2.80;2.53;;;10.70;99.90;;;;;;4976464;28;20469;-70
2021/12/31 06:03:04;;;;;;;3.00;2.80;;;10.60;99.90;;;;;;4976362;28;20489;-70
2021/12/31 06:05:30;;;;;;;2.90;2.70;;;10.60;99.90;;;;;;4976197;28;20460;-70
2021/12/31 06:07:59;;;;;;;4.80;2.80;;;10.60;99.90;;;;;;4976392;28;20543;-70
2021/12/31 06:10:26;;;;;;;3.33;2.40;;;10.60;99.90;;;;;;4976173;28;20552;-70
2021/12/31 06:12:58;;;;;;;3.00;2.70;;;10.60;99.90;;;;;;4978347;28;20998;-71
2021/12/31 06:15:25;;;;;;;3.90;2.80;;;10.60;99.90;;;;;;4975516;28;20469;-71
2021/12/31 06:17:52;;;;;;;2.97;2.80;;;10.60;99.90;;;;;;4975701;28;20508;-71
2021/12/31 06:20:21;;;;;;;3.13;2.87;;;10.60;99.90;;;;;;4975882;28;20965;-71
2021/12/31 06:22:48;;;;;;;4.10;3.70;;;10.60;99.90;;;;;;4976256;28;20480;-70
2021/12/31 06:25:14;;;;;;;3.17;2.90;;;10.60;99.90;;;;;;4975682;28;20966;-70
2021/12/31 06:27:41;;;;;;;3.00;2.70;;;10.60;99.90;;;;;;4975743;28;20453;-71
2021/12/31 06:30:09;;;;;;;2.90;2.70;;;10.50;99.90;;;;;;4975446;28;20987;-70
2021/12/31 06:32:37;;;;;;;6.30;3.27;;;10.50;99.90;;;;;;4976190;28;20486;-70
2021/12/31 06:35:04;;;;;;;3.33;2.73;;;10.50;99.90;;;;;;4975488;28;21025;-70
2021/12/31 06:37:32;;;;;;;3.70;2.97;;;10.50;99.90;;;;;;4976233;28;20439;-71
2021/12/31 06:40:03;;;;;;;3.93;3.20;;;10.50;99.90;;;;;;4975978;28;20455;-71
2021/12/31 06:42:30;;;;;;;4.30;3.10;;;10.60;99.90;;;;;;4976552;28;20477;-71
2021/12/31 06:44:57;;;;;;;3.27;2.87;;;10.50;99.90;;;;;;4975953;28;20469;-70
2021/12/31 06:47:23;;;;;;;3.83;3.37;;;10.50;99.90;;;;;;4975727;28;20446;-71
2021/12/31 06:49:50;;;;;;;3.43;3.13;;;10.50;99.90;;;;;;4978911;28;20453;-70
2021/12/31 06:52:17;;;;;;;6.77;3.10;;;10.50;99.90;;;;;;4979660;28;20475;-71
2021/12/31 06:54:45;;;;;;;5.10;3.30;;;10.50;99.90;;;;;;4979750;28;20842;-70
2021/12/31 06:57:12;;;;;;;2.73;2.63;;;10.40;99.90;;;;;;4979098;28;20806;-70
2021/12/31 06:59:39;;;;;;;3.83;3.50;;;10.40;99.90;;;;;;4979295;28;20465;-71
2021/12/31 07:02:06;;;;;;;3.20;3.00;;;10.40;99.90;;;;;;4979108;28;20479;-70
2021/12/31 07:04:32;;;;;;;3.30;2.90;;;10.50;99.90;;;;;;4979473;28;20944;-71
2021/12/31 07:06:59;;;;;;;2.97;2.77;;;10.50;99.90;;;;;;4979230;28;20969;-71
2021/12/31 07:09:26;;;;;;;3.53;3.10;;;10.50;99.90;;;;;;4979055;28;20463;-71
2021/12/31 07:11:54;;;;;;;2.47;2.30;;;10.40;99.90;;;;;;4979319;28;20484;-72
2021/12/31 07:14:21;;;;;;;2.80;2.63;;;10.40;99.90;;;;;;4979946;28;20467;-71
2021/12/31 07:16:47;;;;;;;2.90;2.70;;;10.40;99.90;;;;;;4979363;28;20940;-72
2021/12/31 07:19:14;;;;;;;3.30;3.00;;;10.40;99.90;;;;;;4980271;28;20482;-72
2021/12/31 07:21:41;;;;;;;4.13;3.47;;;10.40;99.90;;;;;;4980098;28;20476;-72
2021/12/31 07:24:08;;;;;;;2.80;2.60;;;10.40;99.90;;;;;;4979332;28;20969;-73
2021/12/31 07:26:34;;;;;;;3.17;2.87;;;10.40;99.90;;;;;;4978998;28;20461;-71
2021/12/31 07:29:02;;;;;;;4.63;2.87;;;10.40;99.90;;;;;;4979182;28;20461;-72
2021/12/31 07:31:29;;;;;;;3.30;3.10;;;10.40;99.90;;;;;;4979411;28;20488;-72
2021/12/31 07:33:56;;;;;;;2.80;2.60;;;10.40;99.90;;;;;;4979250;28;20950;-72
2021/12/31 07:36:23;;;;;;;2.87;2.67;;;10.40;99.90;;;;;;4979593;28;20565;-71
2021/12/31 07:38:58;;;;;;;2.73;2.53;;;10.40;99.90;;;;;;4979836;28;20523;-72
2021/12/31 07:41:25;;;;;;;3.63;3.33;;;10.50;99.90;;;;;;4979429;28;20437;-72
2021/12/31 07:43:52;;;;;;;3.93;2.90;;;10.40;99.90;;;;;;4981572;28;20461;-72
2021/12/31 07:46:20;;;;;;;3.40;3.20;;;10.50;99.90;;;;;;4981516;28;20455;-73
2021/12/31 07:48:47;;;;;;;3.67;3.37;;;10.50;99.90;;;;;;4979462;28;20555;-72
2021/12/31 07:51:14;;;;;;;3.87;3.00;;;10.70;99.90;;;;;;4980291;28;20465;-72
2021/12/31 07:53:40;;;;;;;2.83;2.63;;;11.30;99.90;;;;;;4979912;28;20458;-72
2021/12/31 07:56:08;;;;;;;2.47;2.27;;;12.30;99.90;;;;;;4979350;28;20482;-71
2021/12/31 07:58:34;;;;;;;2.50;2.40;;;13.30;99.90;;;;;;4979628;28;20959;-71
2021/12/31 08:01:01;;;;;;;2.13;1.93;;;14.40;99.90;;;;;;4978362;28;20466;-72
2021/12/31 08:03:31;;;;;;;1.70;1.60;;;15.30;99.90;;;;;;4978353;28;20470;-73
2021/12/31 08:05:57;;;;;;;2.13;1.90;;;16.40;99.90;;;;;;4978668;28;20458;-71
2021/12/31 08:08:24;;;;;;;1.70;1.60;;;17.30;99.90;;;;;;4978746;28;20485;-71
2021/12/31 08:10:51;;;;;;;2.00;1.80;;;18.20;99.90;;;;;;4978871;28;20454;-70
2021/12/31 08:13:17;;;;;;;1.67;1.57;;;19.10;99.90;;;;;;4977751;28;20487;-70
2021/12/31 08:15:44;;;;;;;1.83;1.73;;;19.90;99.90;;;;;;4977350;28;20492;-71
2021/12/31 08:18:11;;;;;;;2.47;2.27;;;20.40;99.90;;;;;;4978315;28;20450;-71
2021/12/31 08:20:39;;;;;;;1.97;1.90;;;20.90;99.90;;;;;;4977982;28;20487;-71
2021/12/31 08:23:09;;;;;;;2.00;1.90;;;21.50;99.90;;;;;;4986477;28;20475;-72
2021/12/31 08:25:35;;;;;;;2.07;1.97;;;21.90;99.90;;;;;;4989689;28;20874;-70
2021/12/31 08:28:02;;;;;;;2.40;2.20;;;22.00;99.90;;;;;;4991379;28;20466;-70
2021/12/31 08:30:29;;;;;;;1.93;1.83;;;22.00;99.90;;;;;;4989325;28;20455;-71
2021/12/31 08:32:56;;;;;;;2.33;2.23;;;22.10;99.90;;;;;;4983762;28;20471;-71
2021/12/31 08:35:24;;;;;;;2.53;2.20;;;22.10;99.90;;;;;;4977975;28;20478;-71
2021/12/31 08:37:52;;;;;;;2.83;2.50;;;20.80;99.90;;;;;;4978151;28;20440;-70
2021/12/31 08:40:20;;;;;;;2.17;2.07;;;20.60;99.90;;;;;;4978113;28;20458;-71
2021/12/31 08:42:47;;;;;;;2.50;2.30;;;21.20;99.90;;;;;;4977688;28;20514;-71
2021/12/31 08:45:14;;;;;;;2.30;2.20;;;21.10;99.90;;;;;;4977868;28;20468;-71
2021/12/31 08:47:41;;;;;;;1.80;1.70;;;22.00;99.90;;;;;;4977500;28;20462;-70
2021/12/31 08:50:08;;;;;;;2.80;2.20;;;22.60;99.90;;;;;;4977859;28;20463;-71
2021/12/31 08:52:35;;;;;;;2.47;2.27;;;23.20;98.50;;;;;;4977519;28;20986;-70
2021/12/31 08:55:04;;;;;;;2.83;2.63;;;23.50;97.70;;;;;;4976921;28;20479;-70
2021/12/31 08:57:30;;;;;;;2.93;2.73;;;23.50;96.20;;;;;;4976821;28;20946;-70
2021/12/31 08:59:57;;;;;;;2.30;2.20;;;23.50;95.70;;;;;;4977084;28;20455;-70
2021/12/31 09:02:24;;;;;;;2.50;2.40;;;22.80;96.50;;;;;;4976664;28;20982;-70
2021/12/31 09:04:51;;;;;;;2.10;2.00;;;23.20;96.30;;;;;;4976837;28;20455;-69
2021/12/31 09:07:17;;;;;;;3.03;2.90;;;23.70;95.50;;;;;;4976973;28;20934;-72
2021/12/31 09:09:44;;;;;;;2.33;2.23;;;23.60;95.60;;;;;;4977183;28;20458;-70
2021/12/31 09:12:12;;;;;;;2.80;2.70;;;24.00;94.30;;;;;;4976682;28;20482;-70
2021/12/31 09:14:39;;;;;;;3.30;3.10;;;23.30;95.10;;;;;;4978920;28;20546;-70
2021/12/31 09:17:06;;;;;;;3.30;3.10;;;22.30;96.10;;;;;;4980004;28;20973;-69
2021/12/31 09:19:32;;;;;;;4.33;3.60;;;20.90;97.70;;;;;;4976924;28;20462;-69
2021/12/31 09:21:59;;;;;;;3.97;3.57;;;19.70;99.90;;;;;;4976381;28;20482;-70
2021/12/31 09:24:26;;;;;;;4.27;4.00;;;18.70;99.90;;;;;;4976360;28;21024;-70
2021/12/31 09:26:52;;;;;;;3.90;3.60;;;17.80;99.90;;;;;;4977530;28;20461;-70
2021/12/31 09:29:22;;;;;;;3.60;3.23;;;16.90;99.90;;;;;;4976952;28;20466;-70
2021/12/31 09:31:49;;;;;;;4.10;3.80;;;15.90;99.90;;;;;;4976295;28;21020;-70
2021/12/31 09:34:16;;;;;;;3.87;3.53;;;15.40;99.90;;;;;;4977169;28;20461;-69
2021/12/31 09:36:43;;;;;;;4.20;3.90;;;15.00;99.90;;;;;;4976490;28;20992;-68
2021/12/31 09:39:10;;;;;;;4.10;3.80;;;14.80;99.90;;;;;;4976005;28;20457;-71
2021/12/31 09:41:37;;;;;;;5.27;3.53;;;14.70;99.90;;;;;;4975824;28;20492;-71
2021/12/31 09:44:03;;;;;;;3.60;3.40;;;14.50;99.90;;;;;;4975140;28;20461;-70
2021/12/31 09:46:32;;;;;;;3.47;3.27;;;14.40;99.90;;;;;;4975538;28;20462;-70
2021/12/31 09:48:58;;;;;;;3.90;3.70;;;14.20;99.90;;;;;;4975536;28;20804;-71
2021/12/31 09:51:26;;;;;;;4.13;3.73;;;14.00;99.90;;;;;;4975896;28;20456;-70
2021/12/31 09:53:58;;;;;;;4.37;3.97;;;14.10;99.90;;;;;;4976415;28;20519;-71
2021/12/31 09:56:25;;;;;;;4.50;4.10;;;14.00;99.90;;;;;;4975639;28;20990;-71
2021/12/31 09:58:51;;;;;;;3.87;3.60;;;13.90;99.90;;;;;;4975489;28;20458;-71
2021/12/31 10:01:18;;;;;;;4.70;3.90;;;14.00;99.90;;;;;;4975243;28;20467;-71
2021/12/31 10:03:56;;;;;;;4.30;4.10;;;14.00;99.90;;;;;;4975317;28;20455;-71
2021/12/31 10:06:23;;;;;;;4.47;4.07;;;14.10;99.90;;;;;;4975428;28;20573;-70
2021/12/31 10:08:50;;;;;;;4.07;3.77;;;14.20;99.90;;;;;;4975462;28;20456;-70
2021/12/31 10:11:19;;;;;;;7.20;4.23;;;14.10;99.90;;;;;;4975332;28;20457;-70
2021/12/31 10:13:55;;;;;;;4.83;4.43;;;14.10;99.90;;;;;;4975536;28;20491;-70
2021/12/31 10:16:24;;;;;;;4.20;3.90;;;14.20;99.90;;;;;;4975420;28;20873;-70
2021/12/31 10:19:06;;;;;;;6.40;4.40;;;14.10;99.90;;;;;;4975127;28;20945;-69
2021/12/31 10:21:41;;;;;;;4.60;3.97;;;14.10;99.90;;;;;;4974848;28;20482;-70
2021/12/31 10:24:25;;;;;;;3.57;3.37;;;14.10;99.90;;;;;;4974862;28;20447;-70
2021/12/31 10:26:52;;;;;;;5.00;4.70;;;14.20;99.90;;;;;;4975417;28;20489;-72
2021/12/31 10:29:19;;;;;;;5.00;4.50;;;14.30;99.90;;;;;;4975652;28;20469;-71
2021/12/31 10:31:47;;;;;;;5.63;3.93;;;14.30;99.90;;;;;;4975619;28;20478;-71
2021/12/31 10:34:29;;;;;;;4.80;4.50;;;14.30;99.90;;;;;;4975681;28;20976;-70
2021/12/31 10:36:57;;;;;;;4.53;4.20;;;14.60;99.90;;;;;;4975682;28;20476;-72
2021/12/31 10:39:25;;;;;;;4.13;3.83;;;15.60;99.90;;;;;;4975499;28;20461;-72
2021/12/31 10:42:02;;;;;;;4.23;3.93;;;16.60;99.90;;;;;;4975632;28;20478;-72
2021/12/31 10:44:45;;;;;;;3.53;3.33;;;17.80;99.90;;;;;;4975013;28;20446;-71
2021/12/31 10:47:14;;;;;;;4.13;3.70;;;18.90;99.90;;;;;;4977509;28;20435;-70
2021/12/31 10:50:14;;;;;;;3.13;2.93;;;19.70;99.90;;;;;;4974955;28;20459;-70
2021/12/31 10:52:47;;;;;;;3.57;3.37;;;20.60;99.90;;;;;;4975029;28;20479;-69
2021/12/31 10:55:21;;;;;;;3.90;3.60;;;21.00;99.90;;;;;;4974893;28;20474;-71
2021/12/31 10:57:49;;;;;;;3.57;3.27;;;20.70;99.90;;;;;;4975077;28;20439;-71
2021/12/31 11:00:18;;;;;;;3.33;3.13;;;20.20;99.90;;;;;;4974536;28;20981;-71
2021/12/31 11:02:45;;;;;;;4.27;3.97;;;19.40;99.90;;;;;;4974905;28;20504;-71
2021/12/31 11:05:15;;;;;;;3.53;3.33;;;18.60;99.90;;;;;;4975062;28;20454;-71
2021/12/31 11:07:42;;;;;;;3.60;3.30;;;18.00;99.90;;;;;;4974902;28;20827;-71
2021/12/31 11:10:11;;;;;;;4.83;4.17;;;17.50;99.90;;;;;;4974492;28;20462;-71
2021/12/31 11:12:38;;;;;;;4.40;4.00;;;16.80;99.90;;;;;;4974274;28;20490;-71
2021/12/31 11:15:06;;;;;;;4.27;3.87;;;16.60;99.90;;;;;;4975686;28;20458;-71
2021/12/31 11:17:33;;;;;;;8.43;4.30;;;16.40;99.90;;;;;;4974845;28;20485;-71
2021/12/31 11:20:00;;;;;;;4.00;3.80;;;16.10;99.90;;;;;;4975596;28;20452;-71
2021/12/31 11:22:30;;;;;;;3.87;3.57;;;16.00;99.90;;;;;;4975153;28;20501;-71
2021/12/31 11:25:28;;;;;;;4.53;4.23;;;15.90;99.90;;;;;;4974747;28;20442;-71
2021/12/31 11:27:57;;;;;;;3.90;3.60;;;15.80;99.90;;;;;;4974965;28;20442;-71
2021/12/31 11:30:30;;;;;;;4.00;3.60;;;15.90;99.90;;;;;;4974596;28;20788;-71
2021/12/31 11:32:59;;;;;;;4.47;4.07;;;15.90;99.90;;;;;;4974853;28;20473;-71
2021/12/31 11:35:35;;;;;;;4.10;3.80;;;16.00;99.90;;;;;;4975656;28;20946;-71
2021/12/31 11:38:04;;;;;;;3.70;3.47;;;15.90;99.90;;;;;;4978470;28;20448;-71
2021/12/31 11:40:33;;;;;;;4.10;3.67;;;15.70;99.90;;;;;;4978159;28;20492;-71
2021/12/31 11:43:26;;;;;;;3.37;3.17;;;15.80;99.90;;;;;;4977877;28;20480;-71
2021/12/31 11:46:30;;;;;;;3.90;3.70;;;15.90;99.90;;;;;;4978169;28;20458;-71
2021/12/31 11:48:58;;;;;;;3.57;3.27;;;15.90;99.90;;;;;;4977885;28;20501;-71
2021/12/31 11:51:28;;;;;;;3.30;3.10;;;15.90;99.90;;;;;;4977757;28;20962;-71
2021/12/31 11:54:18;;;;;;;3.40;3.20;;;15.90;99.90;;;;;;4977897;28;20443;-70
2021/12/31 11:57:08;;;;;;;5.40;3.97;;;15.90;99.90;;;;;;4978017;28;20492;-70
2021/12/31 11:59:43;;;;;;;3.20;3.00;;;15.90;99.90;;;;;;4973439;28;20461;-71
2021/12/31 12:02:15;;;;;;;3.63;3.17;;;16.00;99.90;;;;;;4977709;28;20485;-71
2021/12/31 12:04:45;;;;;;;3.30;3.10;;;16.00;99.90;;;;;;4977821;28;20443;-71
2021/12/31 12:07:31;;;;;;;3.37;2.90;;;16.10;99.90;;;;;;4978088;28;20454;-71
2021/12/31 12:10:32;;;;;;;3.40;3.10;;;16.10;99.90;;;;;;4977956;28;20443;-70
2021/12/31 12:13:21;;;;;;;3.20;2.93;;;16.10;99.90;;;;;;4976957;28;20518;-72
2021/12/31 12:15:48;;;;;;;2.60;2.50;;;16.10;99.90;;;;;;4976910;28;20443;-72
2021/12/31 12:18:16;;;;;;;2.60;2.40;;;16.10;99.90;;;;;;4977371;28;20453;-72
2021/12/31 12:20:45;;;;;;;2.73;2.63;;;16.10;99.90;;;;;;4976679;28;20463;-70
2021/12/31 12:23:21;;;;;;;2.87;2.67;;;16.30;99.90;;;;;;4976625;28;20989;-69
2021/12/31 12:25:49;;;;;;;3.10;2.90;;;16.50;99.90;;;;;;4977088;28;20452;-72
2021/12/31 12:28:18;;;;;;;3.80;3.50;;;16.70;99.90;;;;;;4977376;28;20458;-72
2021/12/31 12:30:52;;;;;;;3.60;3.40;;;16.70;99.90;;;;;;4979267;28;20465;-72
2021/12/31 12:33:25;;;;;;;3.77;3.43;;;16.80;99.90;;;;;;4976932;28;20962;-71
2021/12/31 12:35:53;;;;;;;3.93;3.63;;;16.90;99.90;;;;;;4976513;28;20462;-72
2021/12/31 12:38:23;;;;;;;4.60;4.20;;;16.90;99.90;;;;;;4976290;28;20469;-71
2021/12/31 12:40:54;;;;;;;4.67;4.37;;;16.80;99.90;;;;;;4976284;28;20970;-72
2021/12/31 12:43:23;;;;;;;5.40;4.53;;;16.80;99.90;;;;;;4976362;28;20482;-72
2021/12/31 12:45:52;;;;;;;5.00;4.60;;;16.70;99.90;;;;;;4976314;28;20466;-72
2021/12/31 12:48:30;;;;;;;5.50;5.07;;;16.70;99.90;;;;;;4977134;28;20455;-69
2021/12/31 12:50:58;;;;;;;6.17;5.27;;;16.60;99.90;;;;;;4976686;28;20470;-69
2021/12/31 12:53:27;;;;;;;5.53;5.13;;;16.50;99.90;;;;;;4976827;28;20513;-70
2021/12/31 12:56:06;;;;;;;5.83;5.33;;;16.40;99.90;;;;;;4976312;28;20446;-69
2021/12/31 12:58:35;;;;;;;6.10;5.70;;;16.40;99.90;;;;;;4976441;28;20450;-70